Time;durP1;ratioP1;P1;durP2;ratioP2;P2;SDS_P1;SDS_P2;PMS_P1;PMS_P2;Temp;Humidity;BMP_temperature;BMP_pressure;BME280_temperature;BME280_humidity;BME280_pressure;Samples;Min_cycle;Max_cycle;Signal;HPM_P1;HPM_P2
2022/04/28 00:00:59;;;;;;;11.88;4.30;;;8.60;99.90;;;;;;5025137;28;20051;-79
2022/04/28 00:03:25;;;;;;;7.45;3.35;;;8.50;99.90;;;;;;5023700;28;20034;-80
2022/04/28 00:05:50;;;;;;;12.00;3.33;;;8.50;99.90;;;;;;5025275;28;20415;-79
2022/04/28 00:08:16;;;;;;;9.77;3.60;;;8.50;99.90;;;;;;5025008;28;20038;-79
2022/04/28 00:10:42;;;;;;;10.20;3.45;;;8.50;99.90;;;;;;5023552;28;20562;-80
2022/04/28 00:13:09;;;;;;;7.47;4.10;;;8.60;99.90;;;;;;5045475;28;20052;-79
2022/04/28 00:15:35;;;;;;;7.45;2.92;;;8.50;99.90;;;;;;5027435;28;20047;-79
2022/04/28 00:18:01;;;;;;;7.63;2.88;;;8.50;99.90;;;;;;5030235;28;20053;-80
2022/04/28 00:20:27;;;;;;;10.93;3.38;;;8.50;99.90;;;;;;5027555;28;20046;-79
2022/04/28 00:22:52;;;;;;;8.25;3.30;;;8.50;99.90;;;;;;5027935;28;20041;-79
2022/04/28 00:25:18;;;;;;;9.63;3.13;;;8.50;99.90;;;;;;5028988;28;20045;-79
2022/04/28 00:27:43;;;;;;;10.25;3.22;;;8.50;99.90;;;;;;5028107;28;20470;-79
2022/04/28 00:30:09;;;;;;;9.50;3.25;;;8.50;99.90;;;;;;5028547;28;20033;-79
2022/04/28 00:32:35;;;;;;;10.25;3.00;;;8.50;99.90;;;;;;5029622;28;20404;-79
2022/04/28 00:35:01;;;;;;;9.02;3.00;;;8.50;99.90;;;;;;5026519;28;20034;-80
2022/04/28 00:37:26;;;;;;;8.55;2.97;;;8.50;99.90;;;;;;5043619;28;20115;-79
2022/04/28 00:39:52;;;;;;;6.65;2.67;;;8.40;99.90;;;;;;5028359;28;20049;-79
2022/04/28 00:42:19;;;;;;;8.52;3.08;;;8.40;99.90;;;;;;5028331;28;20095;-79
2022/04/28 00:44:46;;;;;;;7.07;2.80;;;8.30;99.90;;;;;;5027835;28;20116;-79
2022/04/28 00:47:12;;;;;;;6.40;3.08;;;8.30;99.90;;;;;;5027821;28;20041;-79
2022/04/28 00:52:24;;;;;;;7.65;2.80;;;8.20;99.90;;;;;;5028259;28;20503;-79
2022/04/28 00:54:52;;;;;;;8.07;3.13;;;8.20;99.90;;;;;;5027706;28;20041;-79
2022/04/28 00:57:18;;;;;;;10.52;2.88;;;8.20;99.90;;;;;;5027336;28;20053;-79
2022/04/28 00:59:46;;;;;;;7.90;3.08;;;8.10;99.90;;;;;;5009778;28;20041;-80
2022/04/28 01:02:12;;;;;;;8.90;3.08;;;8.10;99.90;;;;;;5027456;28;20115;-79
2022/04/28 01:04:38;;;;;;;8.25;2.92;;;8.10;99.90;;;;;;5027331;28;21167;-79
2022/04/28 01:07:06;;;;;;;12.70;3.65;;;8.10;99.90;;;;;;5027473;28;20550;-80
2022/04/28 01:09:36;;;;;;;7.50;3.28;;;8.10;99.90;;;;;;5028301;28;20097;-80
2022/04/28 01:12:07;;;;;;;11.02;3.03;;;8.10;99.90;;;;;;5028602;28;20054;-79
2022/04/28 01:14:32;;;;;;;9.30;3.13;;;8.10;99.90;;;;;;5027447;28;20045;-79
2022/04/28 01:16:59;;;;;;;7.18;3.05;;;8.10;99.90;;;;;;5027024;28;20041;-79
2022/04/28 01:19:25;;;;;;;9.23;2.92;;;8.00;99.90;;;;;;5029763;28;20045;-79
2022/04/28 01:21:52;;;;;;;8.98;3.28;;;8.00;99.90;;;;;;5025990;28;20041;-80
2022/04/28 01:24:18;;;;;;;8.43;2.60;;;8.00;99.90;;;;;;5040544;28;20120;-80
2022/04/28 01:26:45;;;;;;;11.02;3.10;;;8.00;99.90;;;;;;5027305;28;20132;-79
2022/04/28 01:29:10;;;;;;;12.13;3.05;;;8.00;99.90;;;;;;5028056;28;20033;-80
2022/04/28 01:31:36;;;;;;;6.82;3.03;;;8.00;99.90;;;;;;5026886;28;20527;-81
2022/04/28 01:34:02;;;;;;;8.75;3.35;;;8.00;99.90;;;;;;5027676;28;20040;-80
2022/04/28 01:36:28;;;;;;;9.27;3.10;;;7.90;99.90;;;;;;5025779;28;20041;-82
2022/04/28 01:38:53;;;;;;;12.85;3.70;;;7.90;99.90;;;;;;5027938;28;20112;-81
2022/04/28 01:41:19;;;;;;;10.88;3.40;;;7.90;99.90;;;;;;5027496;28;20060;-79
2022/04/28 01:43:45;;;;;;;7.88;3.10;;;7.90;99.90;;;;;;5026508;28;20037;-80
2022/04/28 01:46:12;;;;;;;12.52;3.50;;;7.90;99.90;;;;;;5023947;28;20388;-79
2022/04/28 01:48:37;;;;;;;8.95;3.30;;;8.00;99.90;;;;;;5026948;28;20049;-80
2022/04/28 01:56:31;;;;;;;;;;;7.90;99.90;;;;;;5027049;28;20549;-82
2022/04/28 01:58:57;;;;;;;7.53;3.22;;;7.90;99.90;;;;;;5027998;28;19928;-81
2022/04/28 02:01:23;;;;;;;13.80;3.42;;;7.90;99.90;;;;;;5025203;28;20038;-81
2022/04/28 02:03:48;;;;;;;9.45;3.58;;;7.90;99.90;;;;;;5027194;28;20051;-81
2022/04/28 02:06:14;;;;;;;11.80;4.63;;;8.00;99.90;;;;;;5027258;28;20124;-80
2022/04/28 02:08:40;;;;;;;15.55;3.80;;;7.90;99.90;;;;;;5026941;28;20038;-81
2022/04/28 02:11:06;;;;;;;10.45;3.55;;;7.90;99.90;;;;;;5027005;28;20045;-80
2022/04/28 02:13:31;;;;;;;12.45;3.83;;;7.90;99.90;;;;;;5027764;28;20403;-80
2022/04/28 02:15:57;;;;;;;10.35;4.43;;;7.90;99.90;;;;;;5028052;28;20034;-80
2022/04/28 02:18:22;;;;;;;10.00;3.53;;;7.90;99.90;;;;;;5029514;28;20046;-80
2022/04/28 02:20:48;;;;;;;15.10;4.10;;;7.90;99.90;;;;;;5027738;28;20407;-81
2022/04/28 02:23:14;;;;;;;10.02;3.30;;;7.90;99.90;;;;;;5027250;28;20068;-80
2022/04/28 02:25:40;;;;;;;7.95;3.38;;;7.90;99.90;;;;;;5026895;28;20069;-80
2022/04/28 02:28:05;;;;;;;9.70;3.92;;;7.90;99.90;;;;;;5024791;28;20044;-81
2022/04/28 02:30:31;;;;;;;8.70;3.55;;;7.90;99.90;;;;;;5026195;28;22082;-80
2022/04/28 02:33:08;;;;;;;9.27;3.70;;;7.90;99.90;;;;;;5025066;28;21160;-81
2022/04/28 02:35:34;;;;;;;8.65;3.60;;;8.00;99.90;;;;;;5027035;28;20483;-81
2022/04/28 02:37:59;;;;;;;10.43;3.80;;;8.00;99.90;;;;;;5025774;28;20041;-81
2022/04/28 02:40:25;;;;;;;10.52;3.92;;;8.00;99.90;;;;;;5026689;28;20041;-80
2022/04/28 02:42:52;;;;;;;9.70;3.60;;;8.00;99.90;;;;;;5026523;28;20052;-80
2022/04/28 02:45:17;;;;;;;6.60;3.10;;;8.00;99.90;;;;;;5026368;28;20049;-80
2022/04/28 02:47:43;;;;;;;8.55;3.33;;;8.10;99.90;;;;;;5024856;28;20091;-82
2022/04/28 02:50:11;;;;;;;8.95;3.58;;;8.00;99.90;;;;;;5024722;28;20038;-81
2022/04/28 02:52:38;;;;;;;8.73;3.38;;;8.00;99.90;;;;;;5025099;28;20037;-80
2022/04/28 02:55:04;;;;;;;10.35;3.15;;;8.00;99.90;;;;;;5026119;28;20057;-80
2022/04/28 02:57:30;;;;;;;9.23;3.38;;;7.90;99.90;;;;;;5024118;28;20033;-80
2022/04/28 02:59:57;;;;;;;10.20;3.67;;;7.90;99.90;;;;;;5026549;28;20075;-79
2022/04/28 03:02:23;;;;;;;8.32;3.10;;;7.90;99.90;;;;;;5010285;28;20037;-80
2022/04/28 03:04:49;;;;;;;8.57;3.30;;;7.90;99.90;;;;;;5026247;28;20037;-80
2022/04/28 03:12:47;;;;;;;7.70;3.40;;;7.90;99.90;;;;;;5005464;28;19923;-80
2022/04/28 03:15:13;;;;;;;8.07;3.25;;;7.80;99.90;;;;;;5024994;28;20116;-81
2022/04/28 03:17:38;;;;;;;10.35;3.97;;;7.80;99.90;;;;;;5011328;28;20041;-80
2022/04/28 03:20:05;;;;;;;15.60;3.95;;;7.80;99.90;;;;;;5028020;28;20037;-80
2022/04/28 03:22:30;;;;;;;8.63;3.72;;;7.80;99.90;;;;;;5026012;28;20056;-80
2022/04/28 03:24:57;;;;;;;9.77;4.20;;;7.80;99.90;;;;;;5026762;28;20038;-80
2022/04/28 03:27:22;;;;;;;8.35;3.65;;;7.80;99.90;;;;;;5025654;28;20056;-80
2022/04/28 03:29:48;;;;;;;10.90;4.18;;;7.80;99.90;;;;;;5027154;28;20041;-80
2022/04/28 03:32:13;;;;;;;9.13;4.38;;;7.80;99.90;;;;;;5026032;28;20029;-81
2022/04/28 03:34:39;;;;;;;11.15;4.00;;;7.90;99.90;;;;;;5026780;28;20525;-81
2022/04/28 03:37:04;;;;;;;10.88;4.00;;;7.80;99.90;;;;;;5025503;28;20456;-81
2022/04/28 03:39:30;;;;;;;11.65;4.22;;;7.90;99.90;;;;;;5025506;28;20395;-81
2022/04/28 03:41:56;;;;;;;7.88;3.60;;;7.90;99.90;;;;;;5026525;28;20045;-81
2022/04/28 03:44:21;;;;;;;9.13;3.92;;;7.90;99.90;;;;;;5026823;28;20500;-80
2022/04/28 03:46:47;;;;;;;11.95;3.78;;;7.90;99.90;;;;;;5024886;28;20053;-80
2022/04/28 03:49:12;;;;;;;9.10;3.60;;;7.90;99.90;;;;;;5027356;28;20446;-80
2022/04/28 03:51:39;;;;;;;11.05;3.72;;;7.90;99.90;;;;;;5025127;28;20041;-81
2022/04/28 03:54:05;;;;;;;10.48;3.72;;;7.90;99.90;;;;;;5026531;28;20107;-81
2022/04/28 03:56:32;;;;;;;7.95;3.47;;;7.80;99.90;;;;;;5023216;28;20029;-80
2022/04/28 03:59:01;;;;;;;8.35;3.78;;;7.80;99.90;;;;;;5025297;28;20081;-81
2022/04/28 04:01:27;;;;;;;12.23;4.18;;;7.90;99.90;;;;;;5024808;28;20095;-82
2022/04/28 04:03:53;;;;;;;8.18;4.20;;;7.80;99.90;;;;;;5025096;28;20037;-81
2022/04/28 04:06:19;;;;;;;9.35;4.00;;;7.80;99.90;;;;;;5025809;28;20122;-82
2022/04/28 04:08:45;;;;;;;9.52;3.67;;;7.90;99.90;;;;;;5025776;28;20068;-81
2022/04/28 04:11:14;;;;;;;8.80;3.67;;;7.90;99.90;;;;;;5026360;28;20045;-81
2022/04/28 04:13:40;;;;;;;8.93;3.60;;;7.90;99.90;;;;;;5008581;28;20187;-83
2022/04/28 04:16:05;;;;;;;12.68;4.10;;;7.90;99.90;;;;;;5028229;28;20117;-80
2022/04/28 04:18:31;;;;;;;9.23;4.15;;;7.90;99.90;;;;;;5028037;28;20040;-81
2022/04/28 04:20:57;;;;;;;9.88;4.10;;;7.90;99.90;;;;;;5027500;28;20034;-82
2022/04/28 04:23:23;;;;;;;8.68;4.00;;;7.90;99.90;;;;;;5025130;28;20037;-81
2022/04/28 04:25:48;;;;;;;12.63;4.60;;;7.80;99.90;;;;;;5026250;28;20041;-82
2022/04/28 04:28:14;;;;;;;9.35;4.50;;;7.80;99.90;;;;;;5026665;28;20037;-81
2022/04/28 04:33:23;;;;;;;11.10;4.82;;;7.80;99.90;;;;;;5026137;28;20045;-83
2022/04/28 04:35:49;;;;;;;13.13;5.40;;;7.80;99.90;;;;;;5009622;28;20495;-82
2022/04/28 04:38:14;;;;;;;12.77;4.65;;;7.80;99.90;;;;;;5025733;28;20045;-82
2022/04/28 04:40:40;;;;;;;12.10;5.25;;;7.80;99.90;;;;;;5027403;28;20030;-82
2022/04/28 04:43:09;;;;;;;10.48;5.00;;;7.70;99.90;;;;;;5025391;28;20063;-81
2022/04/28 04:45:34;;;;;;;11.57;4.90;;;7.70;99.90;;;;;;5007697;28;20076;-82
2022/04/28 04:48:00;;;;;;;10.27;4.90;;;7.80;99.90;;;;;;5026940;28;20095;-82
2022/04/28 04:50:26;;;;;;;11.77;5.30;;;7.70;99.90;;;;;;5027075;28;20089;-82
2022/04/28 04:52:51;;;;;;;8.73;4.85;;;7.70;99.90;;;;;;5025603;28;20466;-81
2022/04/28 04:55:17;;;;;;;9.75;4.88;;;7.80;99.90;;;;;;5026116;28;20072;-81
2022/04/28 04:57:43;;;;;;;9.32;4.63;;;7.80;99.90;;;;;;5027190;28;20107;-82
2022/04/28 05:00:10;;;;;;;10.85;4.68;;;7.90;99.90;;;;;;5029641;28;20033;-81
2022/04/28 05:02:36;;;;;;;9.45;4.70;;;7.90;99.90;;;;;;5030245;28;20111;-81
2022/04/28 05:05:01;;;;;;;9.00;4.80;;;8.00;99.90;;;;;;5030885;28;20075;-80
2022/04/28 05:07:31;;;;;;;11.48;5.05;;;8.10;99.90;;;;;;5028455;28;20104;-82
2022/04/28 05:09:56;;;;;;;11.45;5.00;;;8.10;99.90;;;;;;5027137;28;20105;-81
2022/04/28 05:12:22;;;;;;;9.02;5.07;;;8.20;99.90;;;;;;5029741;28;20067;-81
2022/04/28 05:14:48;;;;;;;9.70;5.07;;;8.20;99.90;;;;;;5032031;28;20373;-81
2022/04/28 05:17:14;;;;;;;14.27;4.65;;;8.20;99.90;;;;;;5033360;28;20060;-80
2022/04/28 05:19:39;;;;;;;9.30;3.88;;;8.20;99.90;;;;;;5034027;28;20025;-81
2022/04/28 05:22:05;;;;;;;14.25;4.50;;;8.30;99.90;;;;;;5034006;28;20040;-81
2022/04/28 05:24:30;;;;;;;12.55;3.70;;;8.30;99.90;;;;;;5033338;28;20037;-81
2022/04/28 05:26:56;;;;;;;8.20;3.45;;;8.30;99.90;;;;;;5032647;28;20041;-81
2022/04/28 05:29:21;;;;;;;10.25;3.50;;;8.30;99.90;;;;;;5032435;28;20454;-82
2022/04/28 05:31:47;;;;;;;13.85;3.78;;;8.40;99.90;;;;;;5026255;28;20034;-82
2022/04/28 05:34:13;;;;;;;12.32;3.45;;;8.40;99.90;;;;;;5024847;28;20037;-81
2022/04/28 05:36:39;;;;;;;9.77;3.08;;;8.50;99.90;;;;;;5027428;28;21082;-81
2022/04/28 05:39:06;;;;;;;8.98;3.28;;;8.60;99.90;;;;;;5025084;28;20061;-81
2022/04/28 05:41:33;;;;;;;11.93;3.10;;;8.60;99.90;;;;;;5031190;28;20026;-80
2022/04/28 05:46:43;;;;;;;10.77;2.92;;;8.80;99.90;;;;;;5033366;28;20098;-80
2022/04/28 05:49:09;;;;;;;10.18;2.88;;;8.80;99.90;;;;;;5033536;28;20398;-80
2022/04/28 05:51:34;;;;;;;11.57;3.00;;;8.90;99.90;;;;;;5033602;28;20052;-80
2022/04/28 05:54:00;;;;;;;8.98;3.08;;;9.00;99.90;;;;;;5048998;28;20441;-80
2022/04/28 05:56:26;;;;;;;15.52;3.25;;;9.00;99.90;;;;;;5015251;28;20389;-80
2022/04/28 05:58:52;;;;;;;10.40;3.00;;;9.00;99.90;;;;;;5013200;28;20048;-80
2022/04/28 06:01:18;;;;;;;7.13;2.65;;;9.00;99.90;;;;;;5012882;28;20049;-80
2022/04/28 06:03:43;;;;;;;8.55;3.00;;;9.00;99.90;;;;;;5030813;28;20510;-81
2022/04/28 06:06:09;;;;;;;8.77;2.90;;;9.00;99.90;;;;;;5032508;28;20045;-80
2022/04/28 06:08:36;;;;;;;10.00;3.20;;;9.00;99.90;;;;;;5023426;28;20132;-80
2022/04/28 06:11:02;;;;;;;9.73;3.33;;;9.00;99.90;;;;;;5026481;28;20120;-81
2022/04/28 06:13:30;;;;;;;8.77;2.80;;;8.90;99.90;;;;;;5023934;28;20477;-80
2022/04/28 06:15:56;;;;;;;14.35;3.50;;;8.90;99.90;;;;;;5030862;28;20037;-80
2022/04/28 06:18:22;;;;;;;13.60;3.13;;;9.10;99.90;;;;;;5026363;28;20079;-80
2022/04/28 06:20:47;;;;;;;8.07;2.90;;;9.30;99.90;;;;;;5031826;28;20033;-81
2022/04/28 06:23:13;;;;;;;11.35;3.17;;;9.40;99.90;;;;;;5026319;28;20113;-80
2022/04/28 06:25:38;;;;;;;8.55;3.42;;;9.40;99.90;;;;;;5034298;28;20079;-81
2022/04/28 06:28:05;;;;;;;11.52;3.25;;;9.50;99.90;;;;;;5028523;28;20029;-80
2022/04/28 06:30:30;;;;;;;12.90;3.45;;;9.40;99.90;;;;;;5030301;28;20503;-81
2022/04/28 06:32:56;;;;;;;9.95;3.08;;;9.60;99.90;;;;;;5025450;28;20041;-80
2022/04/28 06:35:21;;;;;;;9.38;3.28;;;9.80;99.90;;;;;;5030855;28;20061;-81
2022/04/28 06:37:47;;;;;;;8.55;2.63;;;10.00;99.90;;;;;;5028031;28;20045;-81
2022/04/28 06:40:13;;;;;;;10.13;2.30;;;10.10;99.90;;;;;;5028743;28;20025;-81
2022/04/28 06:42:43;;;;;;;7.30;2.55;;;10.20;99.90;;;;;;5030624;28;20045;-81
2022/04/28 06:45:10;;;;;;;9.15;2.42;;;10.30;99.90;;;;;;5028042;28;20120;-81
2022/04/28 06:47:36;;;;;;;10.65;2.35;;;10.40;99.90;;;;;;5017864;28;20123;-81
2022/04/28 06:50:02;;;;;;;8.30;2.17;;;10.50;99.90;;;;;;5027006;28;20034;-82
2022/04/28 06:52:27;;;;;;;11.77;2.55;;;10.60;99.90;;;;;;5048977;28;20060;-81
2022/04/28 06:54:53;;;;;;;10.30;2.33;;;10.70;99.90;;;;;;5028550;28;20058;-81
2022/04/28 06:57:19;;;;;;;8.45;2.13;;;10.80;99.90;;;;;;5028515;28;20041;-81
2022/04/28 06:59:44;;;;;;;7.75;2.40;;;10.80;99.90;;;;;;5029614;28;20404;-81
2022/04/28 07:02:10;;;;;;;8.38;2.30;;;10.60;99.90;;;;;;5013931;28;20069;-80
2022/04/28 07:04:36;;;;;;;10.23;2.35;;;10.50;99.90;;;;;;5018323;28;20047;-81
2022/04/28 07:07:01;;;;;;;9.52;2.83;;;10.40;99.90;;;;;;5017017;28;20033;-80
2022/04/28 07:09:27;;;;;;;6.60;2.30;;;10.40;99.90;;;;;;5015332;28;20040;-81
2022/04/28 07:11:53;;;;;;;8.25;2.08;;;10.40;99.90;;;;;;5030029;28;20084;-81
2022/04/28 07:14:18;;;;;;;7.35;2.00;;;10.40;99.90;;;;;;5025480;28;20052;-81
2022/04/28 07:16:44;;;;;;;8.30;2.22;;;10.50;99.90;;;;;;5029281;28;20029;-80
2022/04/28 07:19:09;;;;;;;9.45;2.15;;;10.40;99.90;;;;;;5032806;28;20033;-81
2022/04/28 07:21:36;;;;;;;9.75;2.22;;;10.60;99.90;;;;;;5013375;28;20125;-81
2022/04/28 07:24:01;;;;;;;11.20;2.03;;;10.70;99.90;;;;;;5013680;28;20377;-81
2022/04/28 07:26:28;;;;;;;8.93;2.05;;;11.00;99.90;;;;;;5027689;28;20201;-81
2022/04/28 07:28:54;;;;;;;10.70;2.50;;;11.20;99.90;;;;;;5031124;28;20095;-81
2022/04/28 07:31:19;;;;;;;7.80;1.92;;;11.40;99.90;;;;;;5024073;28;20037;-81
2022/04/28 07:33:45;;;;;;;7.32;2.60;;;11.60;99.90;;;;;;5029804;28;20038;-82
2022/04/28 07:36:12;;;;;;;7.72;2.10;;;11.50;99.90;;;;;;5031177;28;20026;-80
2022/04/28 07:38:38;;;;;;;10.38;2.03;;;11.40;99.90;;;;;;5032189;28;20120;-81
2022/04/28 07:41:04;;;;;;;8.18;2.00;;;11.20;99.90;;;;;;5025670;28;20030;-81
2022/04/28 07:43:29;;;;;;;10.38;2.03;;;11.00;99.90;;;;;;5026706;28;20067;-81
2022/04/28 07:45:55;;;;;;;8.30;1.70;;;10.90;99.90;;;;;;5015734;28;20041;-81
2022/04/28 07:48:20;;;;;;;6.93;1.70;;;10.70;99.90;;;;;;5029487;28;20046;-81
2022/04/28 07:50:47;;;;;;;7.97;1.65;;;10.60;99.90;;;;;;5024900;28;20099;-80
2022/04/28 07:53:13;;;;;;;9.13;1.98;;;10.50;99.90;;;;;;5032057;28;20038;-80
2022/04/28 07:55:38;;;;;;;10.07;2.55;;;10.50;99.90;;;;;;5023844;28;20132;-80
2022/04/28 07:58:04;;;;;;;6.22;1.75;;;10.50;99.90;;;;;;5032304;28;20132;-81
2022/04/28 08:00:29;;;;;;;7.68;2.00;;;10.50;99.90;;;;;;5032576;28;20041;-80
2022/04/28 08:02:55;;;;;;;6.38;1.88;;;10.60;99.90;;;;;;5032008;28;20045;-80
2022/04/28 08:05:20;;;;;;;7.53;2.03;;;10.70;99.90;;;;;;5032290;28;20206;-80
2022/04/28 08:07:46;;;;;;;8.88;1.90;;;10.70;99.90;;;;;;5032060;28;20071;-80
2022/04/28 08:10:12;;;;;;;9.27;2.05;;;10.60;99.90;;;;;;5032588;28;20048;-80
2022/04/28 08:12:38;;;;;;;8.40;1.90;;;10.70;99.90;;;;;;5032099;28;20053;-80
2022/04/28 08:15:05;;;;;;;8.88;1.90;;;10.80;99.90;;;;;;5031554;28;20038;-80
2022/04/28 08:17:30;;;;;;;10.90;2.17;;;10.80;99.90;;;;;;5031752;28;20049;-80
2022/04/28 08:19:56;;;;;;;11.98;2.17;;;11.00;99.90;;;;;;5047756;28;20114;-80
2022/04/28 08:22:21;;;;;;;10.05;1.70;;;11.00;99.90;;;;;;5031076;28;20037;-80
2022/04/28 08:24:47;;;;;;;7.47;1.80;;;11.00;99.90;;;;;;5031008;28;20453;-80
2022/04/28 08:27:12;;;;;;;10.07;1.88;;;10.90;99.90;;;;;;5030818;28;20049;-80
2022/04/28 08:29:38;;;;;;;9.35;2.20;;;10.80;99.90;;;;;;5030958;28;20037;-80
2022/04/28 08:32:04;;;;;;;8.50;1.70;;;10.90;99.90;;;;;;5030730;28;20037;-81
2022/04/28 08:34:29;;;;;;;6.18;1.45;;;10.90;99.90;;;;;;5034705;28;20521;-80
2022/04/28 08:36:55;;;;;;;13.45;2.10;;;10.90;99.90;;;;;;5035174;28;20042;-80
2022/04/28 08:39:21;;;;;;;6.00;2.10;;;10.90;99.90;;;;;;5033976;28;20128;-80
2022/04/28 08:41:47;;;;;;;6.65;1.88;;;11.10;99.90;;;;;;5050490;28;20121;-80
2022/04/28 08:44:20;;;;;;;7.28;1.60;;;11.20;99.90;;;;;;5034083;28;20145;-80
2022/04/28 08:46:52;;;;;;;6.95;1.48;;;11.70;99.90;;;;;;5034428;28;20124;-80
2022/04/28 08:49:29;;;;;;;8.23;1.80;;;12.10;99.90;;;;;;5029197;28;20160;-80
2022/04/28 08:51:57;;;;;;;6.22;1.80;;;12.40;99.90;;;;;;5027784;28;20047;-80
2022/04/28 08:54:25;;;;;;;6.07;1.80;;;12.80;99.90;;;;;;5024408;28;20048;-80
2022/04/28 08:56:52;;;;;;;8.55;2.15;;;12.90;99.90;;;;;;5032950;28;20033;-80
2022/04/28 08:59:19;;;;;;;10.50;2.08;;;12.60;99.90;;;;;;5033331;28;20400;-80
2022/04/28 09:01:44;;;;;;;9.48;2.50;;;12.50;99.90;;;;;;5024261;28;20041;-79
2022/04/28 09:04:10;;;;;;;11.25;2.70;;;12.30;99.90;;;;;;5033352;28;20577;-80
2022/04/28 09:06:38;;;;;;;9.98;3.33;;;12.30;99.90;;;;;;5014984;28;20046;-80
2022/04/28 09:09:13;;;;;;;7.32;2.55;;;12.50;99.90;;;;;;5024551;28;20041;-80
2022/04/28 09:11:41;;;;;;;8.68;2.60;;;12.40;99.90;;;;;;5033712;28;20523;-80
2022/04/28 09:14:18;;;;;;;9.10;3.13;;;12.40;99.90;;;;;;5032516;28;20083;-81
2022/04/28 09:16:52;;;;;;;6.82;2.22;;;12.40;99.90;;;;;;5046710;28;20033;-80
2022/04/28 09:19:23;;;;;;;8.70;2.92;;;12.50;99.90;;;;;;5023170;28;20117;-80
2022/04/28 09:21:52;;;;;;;11.88;3.40;;;12.60;99.90;;;;;;5031290;28;20049;-80
2022/04/28 09:24:18;;;;;;;8.80;3.38;;;12.70;99.90;;;;;;5033016;28;20457;-81
2022/04/28 09:26:44;;;;;;;11.27;3.55;;;12.80;99.90;;;;;;5012747;28;20088;-80
2022/04/28 09:29:12;;;;;;;11.90;3.63;;;12.90;99.90;;;;;;5020535;28;20487;-80
2022/04/28 09:31:39;;;;;;;10.70;3.70;;;13.00;99.90;;;;;;5026539;28;20450;-81
2022/04/28 09:34:10;;;;;;;11.63;3.35;;;13.00;99.90;;;;;;5028999;28;20034;-81
2022/04/28 09:36:37;;;;;;;10.30;3.60;;;13.00;99.90;;;;;;5022315;28;20064;-80
2022/04/28 09:39:03;;;;;;;9.73;3.00;;;12.70;99.90;;;;;;5030299;28;20038;-80
2022/04/28 09:44:13;;;;;;;;;;;12.50;99.90;;;;;;5029644;28;20072;-81
2022/04/28 09:46:41;;;;;;;11.63;2.88;;;12.60;99.90;;;;;;5032862;28;19960;-81
2022/04/28 09:49:07;;;;;;;11.10;3.00;;;12.70;99.90;;;;;;5026197;28;20427;-81
2022/04/28 09:51:36;;;;;;;9.18;2.90;;;12.60;99.90;;;;;;5029154;28;20048;-80
2022/04/28 09:54:06;;;;;;;7.88;2.72;;;12.30;99.90;;;;;;5032215;28;20099;-79
2022/04/28 09:56:34;;;;;;;8.48;2.80;;;12.50;99.90;;;;;;5028928;28;20033;-82
2022/04/28 09:59:00;;;;;;;7.53;2.75;;;12.70;99.90;;;;;;5029106;28;20046;-80
2022/04/28 10:01:28;;;;;;;7.72;2.92;;;12.60;99.90;;;;;;5029804;28;20029;-80
2022/04/28 10:03:54;;;;;;;9.60;2.90;;;12.70;99.90;;;;;;5025057;28;20030;-80
2022/04/28 10:06:21;;;;;;;14.93;3.17;;;12.80;99.90;;;;;;5026859;28;20048;-80
2022/04/28 10:08:47;;;;;;;12.88;3.10;;;12.90;99.90;;;;;;5028917;28;20037;-80
2022/04/28 10:11:19;;;;;;;11.10;3.30;;;12.90;99.90;;;;;;5031184;28;20033;-80
2022/04/28 10:13:47;;;;;;;9.82;2.88;;;13.10;99.90;;;;;;5023930;28;20059;-80
2022/04/28 10:16:13;;;;;;;9.25;3.00;;;13.10;99.90;;;;;;5024041;28;20065;-80
2022/04/28 10:18:58;;;;;;;13.18;2.90;;;12.80;99.90;;;;;;5027254;28;20042;-80
2022/04/28 10:21:31;;;;;;;9.40;2.88;;;12.70;99.90;;;;;;5025974;28;20044;-80
2022/04/28 10:33:04;;;;;;;8.77;3.05;;;12.70;99.90;;;;;;5031661;28;20044;-80
2022/04/28 10:35:36;;;;;;;9.27;2.78;;;13.00;99.90;;;;;;5031212;28;20034;-79
2022/04/28 10:38:13;;;;;;;11.48;3.10;;;13.30;99.90;;;;;;5030136;28;20033;-79
2022/04/28 10:40:41;;;;;;;10.15;2.70;;;13.50;99.90;;;;;;5025584;28;20037;-79
2022/04/28 10:43:21;;;;;;;11.48;3.10;;;13.60;99.90;;;;;;5029064;28;20088;-79
2022/04/28 10:45:49;;;;;;;9.70;2.65;;;13.50;99.90;;;;;;5028951;28;20044;-79
2022/04/28 10:48:28;;;;;;;7.80;2.42;;;13.30;99.90;;;;;;5022158;28;20045;-78
2022/04/28 10:51:26;;;;;;;9.88;2.95;;;13.20;99.90;;;;;;5023291;28;20376;-78
2022/04/28 10:54:10;;;;;;;9.30;2.50;;;13.20;99.90;;;;;;5027412;28;20094;-78
2022/04/28 10:56:42;;;;;;;6.90;2.83;;;13.10;99.90;;;;;;5028337;28;20033;-78
2022/04/28 10:59:32;;;;;;;7.60;2.65;;;13.20;99.90;;;;;;5028712;28;20528;-79
2022/04/28 11:02:15;;;;;;;9.38;2.63;;;13.00;99.90;;;;;;5024644;28;20415;-78
2022/04/28 11:04:44;;;;;;;8.10;2.30;;;13.10;99.90;;;;;;5011564;28;20393;-78
2022/04/28 11:07:24;;;;;;;14.70;2.72;;;12.90;99.90;;;;;;5010739;28;20144;-78
2022/04/28 11:09:57;;;;;;;7.88;2.35;;;13.00;99.90;;;;;;5011015;28;20056;-78
2022/04/28 11:12:25;;;;;;;11.45;2.63;;;12.90;99.90;;;;;;5030880;28;20041;-78
2022/04/28 11:15:10;;;;;;;10.88;2.85;;;12.90;99.90;;;;;;5030687;28;20496;-78
2022/04/28 11:17:37;;;;;;;9.43;2.47;;;12.70;99.90;;;;;;5011158;28;20034;-78
2022/04/28 11:20:11;;;;;;;9.65;2.60;;;12.50;99.90;;;;;;5025139;28;20087;-78
2022/04/28 11:22:43;;;;;;;12.13;2.45;;;12.40;99.90;;;;;;5020600;28;20041;-78
2022/04/28 11:25:11;;;;;;;8.63;2.63;;;12.70;99.90;;;;;;5029835;28;20041;-78
2022/04/28 11:27:36;;;;;;;8.27;2.58;;;12.90;99.90;;;;;;5028910;28;20415;-78
2022/04/28 11:30:03;;;;;;;7.75;2.35;;;13.10;99.90;;;;;;5015982;28;20053;-78
2022/04/28 11:32:29;;;;;;;8.27;2.65;;;12.80;99.90;;;;;;4996872;28;20049;-78
2022/04/28 11:34:57;;;;;;;7.03;2.65;;;12.70;99.90;;;;;;5029996;28;20087;-78
2022/04/28 11:37:25;;;;;;;9.93;2.72;;;12.80;99.90;;;;;;5030682;28;20388;-78
2022/04/28 11:39:53;;;;;;;10.18;2.53;;;13.10;99.90;;;;;;5030533;28;20388;-78
2022/04/28 11:42:19;;;;;;;11.45;2.92;;;13.30;99.90;;;;;;5031153;28;20498;-79
2022/04/28 11:44:55;;;;;;;8.65;2.50;;;13.60;99.90;;;;;;5030603;28;20033;-78
2022/04/28 11:47:22;;;;;;;8.43;2.50;;;13.40;99.90;;;;;;5030712;28;20053;-78
2022/04/28 11:49:50;;;;;;;8.60;2.53;;;13.20;99.90;;;;;;5026904;28;20141;-78
2022/04/28 11:52:29;;;;;;;12.25;2.63;;;13.30;99.90;;;;;;5024700;28;20064;-78
2022/04/28 11:55:01;;;;;;;9.00;2.78;;;13.30;99.90;;;;;;5029608;28;20029;-79
2022/04/28 11:57:27;;;;;;;9.50;2.85;;;13.10;99.90;;;;;;5030718;28;20442;-78
2022/04/28 11:59:53;;;;;;;10.15;2.40;;;13.30;99.90;;;;;;5030445;28;20094;-78
2022/04/28 12:02:24;;;;;;;9.50;2.55;;;13.30;99.90;;;;;;5029757;28;20029;-78
2022/04/28 12:04:50;;;;;;;9.20;2.63;;;13.20;99.90;;;;;;5024620;28;20109;-78
2022/04/28 12:07:26;;;;;;;9.05;2.30;;;13.30;99.90;;;;;;5029156;28;20125;-78
2022/04/28 12:15:22;;;;;;;7.38;2.35;;;13.20;99.90;;;;;;5021193;28;20053;-78
2022/04/28 12:20:38;;;;;;;8.18;2.50;;;13.00;99.90;;;;;;5043969;28;20049;-78
2022/04/28 12:23:04;;;;;;;9.18;2.40;;;13.40;99.90;;;;;;5029154;28;20034;-78
2022/04/28 12:25:33;;;;;;;8.48;2.60;;;13.40;99.90;;;;;;5027407;28;20033;-78
2022/04/28 12:27:59;;;;;;;7.20;2.35;;;13.60;99.90;;;;;;5028307;28;20053;-78
2022/04/28 12:30:25;;;;;;;10.02;2.50;;;13.90;99.90;;;;;;5027764;28;20052;-78
2022/04/28 12:32:54;;;;;;;12.25;2.40;;;14.00;99.90;;;;;;5027785;28;20044;-78
2022/04/28 12:35:30;;;;;;;12.70;3.42;;;14.10;99.90;;;;;;5024711;28;20440;-78
2022/04/28 12:37:58;;;;;;;8.55;2.40;;;13.90;99.90;;;;;;5028575;28;20129;-78
2022/04/28 12:40:24;;;;;;;8.57;2.60;;;14.00;99.90;;;;;;5029957;28;20399;-78
2022/04/28 12:42:50;;;;;;;8.73;2.47;;;14.20;99.90;;;;;;5030118;28;20468;-78
2022/04/28 12:45:56;;;;;;;9.93;2.45;;;14.20;99.90;;;;;;5029407;28;20042;-78
2022/04/28 12:48:26;;;;;;;9.60;2.63;;;14.30;99.90;;;;;;5030253;28;20049;-79
2022/04/28 12:51:07;;;;;;;8.35;2.60;;;14.50;99.90;;;;;;5029351;28;20122;-78
2022/04/28 12:53:32;;;;;;;7.25;2.65;;;14.20;99.90;;;;;;5029971;28;20081;-79
2022/04/28 12:56:09;;;;;;;9.18;3.08;;;14.40;99.90;;;;;;5029949;28;20119;-79
2022/04/28 12:58:42;;;;;;;9.20;2.22;;;14.10;99.90;;;;;;5029493;28;20099;-79
2022/04/28 13:01:13;;;;;;;8.27;2.50;;;14.20;99.90;;;;;;5024548;28;20133;-79
2022/04/28 13:03:40;;;;;;;11.32;2.72;;;14.20;99.90;;;;;;5041163;28;20036;-79
2022/04/28 13:06:06;;;;;;;11.75;2.72;;;14.10;99.90;;;;;;5029699;28;20049;-78
2022/04/28 13:08:32;;;;;;;7.13;2.53;;;14.50;99.90;;;;;;5031871;28;20401;-79
2022/04/28 13:10:58;;;;;;;7.18;2.63;;;15.00;99.90;;;;;;5033208;28;20136;-79
2022/04/28 13:13:24;;;;;;;10.88;2.20;;;15.30;99.90;;;;;;5046469;28;20048;-80
2022/04/28 13:15:49;;;;;;;12.68;2.63;;;15.20;99.90;;;;;;5026453;28;20113;-79
2022/04/28 13:18:15;;;;;;;11.15;2.22;;;15.20;99.90;;;;;;5026102;28;20041;-79
2022/04/28 13:20:40;;;;;;;8.43;2.30;;;14.90;99.90;;;;;;5024416;28;20034;-80
2022/04/28 13:23:06;;;;;;;7.15;2.13;;;15.10;99.90;;;;;;5036257;28;20120;-80
2022/04/28 13:25:31;;;;;;;8.45;2.40;;;15.10;99.90;;;;;;5019030;28;20041;-80
2022/04/28 13:27:57;;;;;;;7.50;2.17;;;15.00;99.90;;;;;;5019487;28;20049;-80